Time;durP1;ratioP1;P1;durP2;ratioP2;P2;SDS_P1;SDS_P2;PMS_P1;PMS_P2;Temp;Humidity;BMP_temperature;BMP_pressure;BME280_temperature;BME280_humidity;BME280_pressure;Samples;Min_cycle;Max_cycle;Signal;HPM_P1;HPM_P2
2024/01/24 00:02:24;;;;;;;5.33;1.73;;;4.30;1.00;;;;;;8391745;28;20247;-62
2024/01/24 00:06:24;;;;;;;7.03;1.83;;;4.30;1.00;;;;;;8393064;28;20169;-62
2024/01/24 00:10:25;;;;;;;8.13;1.83;;;4.30;1.00;;;;;;8390792;28;20191;-61
2024/01/24 00:14:26;;;;;;;7.13;1.90;;;4.30;1.00;;;;;;8396487;28;20271;-61
2024/01/24 00:18:27;;;;;;;7.07;2.77;;;4.20;1.00;;;;;;8390897;28;20208;-62
2024/01/24 00:22:28;;;;;;;6.97;2.23;;;4.10;1.00;;;;;;8392128;28;20180;-61
2024/01/24 00:26:29;;;;;;;7.93;2.87;;;4.00;1.00;;;;;;8393552;28;20176;-61
2024/01/24 00:30:29;;;;;;;6.20;2.53;;;3.80;1.00;;;;;;8390402;28;20272;-62
2024/01/24 00:34:30;;;;;;;7.27;2.43;;;3.60;1.00;;;;;;8392648;28;20193;-60
2024/01/24 00:38:31;;;;;;;6.63;2.33;;;3.50;1.00;;;;;;8390296;28;20318;-59
2024/01/24 00:42:31;;;;;;;8.77;3.27;;;3.40;1.00;;;;;;8388847;28;20185;-58
2024/01/24 00:46:32;;;;;;;7.43;2.27;;;3.50;1.00;;;;;;8391922;28;20185;-60
2024/01/24 00:50:34;;;;;;;6.93;2.60;;;3.50;1.00;;;;;;8390654;28;20500;-61
2024/01/24 00:54:35;;;;;;;6.37;2.60;;;3.60;1.00;;;;;;8397384;28;20566;-60
2024/01/24 00:58:36;;;;;;;5.70;2.60;;;3.70;1.00;;;;;;8388303;28;20212;-60
2024/01/24 01:02:37;;;;;;;8.23;2.63;;;3.80;1.00;;;;;;8393529;28;20191;-60
2024/01/24 01:06:39;;;;;;;6.73;2.33;;;3.90;1.00;;;;;;8390738;28;20188;-61
2024/01/24 01:10:39;;;;;;;6.83;2.37;;;3.90;1.00;;;;;;8391716;28;20193;-60
2024/01/24 01:14:40;;;;;;;6.50;2.47;;;3.90;1.00;;;;;;8390420;28;20197;-62
2024/01/24 01:18:41;;;;;;;7.10;2.57;;;3.90;1.00;;;;;;8390245;28;20262;-61
2024/01/24 01:22:41;;;;;;;10.83;2.63;;;3.90;1.00;;;;;;8389685;28;20185;-61
2024/01/24 01:26:42;;;;;;;8.17;2.77;;;4.00;1.00;;;;;;8387181;28;20528;-61
2024/01/24 01:30:43;;;;;;;6.20;2.60;;;4.00;1.00;;;;;;8392106;28;20196;-60
2024/01/24 01:34:43;;;;;;;5.67;2.57;;;4.10;1.00;;;;;;8392610;28;20271;-60
2024/01/24 01:38:44;;;;;;;6.13;2.27;;;4.10;1.00;;;;;;8389016;28;20209;-62
2024/01/24 01:42:45;;;;;;;6.23;2.10;;;4.20;1.00;;;;;;8389396;28;20217;-60
2024/01/24 01:46:48;;;;;;;4.17;1.73;;;4.30;1.00;;;;;;8397753;28;20185;-61
2024/01/24 01:50:49;;;;;;;6.00;2.00;;;4.40;1.00;;;;;;8390060;28;20181;-61
2024/01/24 01:54:50;;;;;;;5.03;1.70;;;4.50;1.00;;;;;;8387279;28;20188;-63
2024/01/24 01:58:52;;;;;;;7.13;2.10;;;4.60;1.00;;;;;;8388183;28;20227;-63
2024/01/24 02:02:53;;;;;;;5.97;2.03;;;4.80;1.00;;;;;;8385354;28;20177;-63
2024/01/24 02:06:55;;;;;;;6.30;2.60;;;4.90;1.00;;;;;;8387962;28;20176;-63
2024/01/24 02:10:56;;;;;;;5.43;1.80;;;4.90;1.00;;;;;;8387252;28;20181;-61
2024/01/24 02:14:56;;;;;;;4.80;1.87;;;5.00;1.00;;;;;;8391109;28;20187;-63
2024/01/24 02:18:57;;;;;;;7.70;1.80;;;5.10;1.00;;;;;;8389240;28;20215;-63
2024/01/24 02:22:58;;;;;;;4.00;1.93;;;5.20;1.00;;;;;;8394910;28;20258;-63
2024/01/24 02:26:59;;;;;;;4.27;1.93;;;5.20;1.00;;;;;;8387314;28;20189;-63
2024/01/24 02:31:00;;;;;;;6.50;1.67;;;5.30;1.00;;;;;;8387390;28;20232;-63
2024/01/24 02:35:00;;;;;;;4.47;1.60;;;5.30;1.00;;;;;;8386198;28;20394;-62
2024/01/24 02:39:01;;;;;;;2.73;1.50;;;5.40;1.00;;;;;;8394562;28;20204;-66
2024/01/24 02:43:02;;;;;;;3.07;1.20;;;5.50;1.00;;;;;;8386788;28;20183;-62
2024/01/24 02:47:03;;;;;;;3.80;1.30;;;5.70;1.00;;;;;;8386657;28;20259;-62
2024/01/24 02:51:03;;;;;;;2.27;1.30;;;5.80;1.00;;;;;;8390283;28;20180;-62
2024/01/24 02:55:06;;;;;;;3.03;1.20;;;5.90;1.00;;;;;;8389730;28;20185;-65
2024/01/24 02:59:06;;;;;;;3.07;1.10;;;6.00;1.00;;;;;;8391484;28;20216;-63
2024/01/24 03:03:07;;;;;;;2.30;1.10;;;6.10;1.00;;;;;;8384488;28;20666;-62
2024/01/24 03:07:08;;;;;;;2.37;1.10;;;6.10;1.00;;;;;;8392462;28;20187;-62
2024/01/24 03:11:09;;;;;;;1.93;1.00;;;6.20;1.00;;;;;;8392708;28;20208;-63
2024/01/24 03:15:10;;;;;;;1.73;0.80;;;6.30;1.00;;;;;;8387643;28;20184;-63
2024/01/24 03:19:11;;;;;;;3.50;1.00;;;6.40;1.00;;;;;;8390090;28;20375;-63
2024/01/24 03:23:12;;;;;;;2.43;1.00;;;6.40;1.00;;;;;;8394766;28;20177;-62
2024/01/24 03:27:12;;;;;;;2.80;0.97;;;6.40;1.00;;;;;;8391292;28;20204;-62
2024/01/24 03:31:13;;;;;;;2.37;1.10;;;6.50;1.00;;;;;;8400235;28;20188;-62
2024/01/24 03:35:14;;;;;;;2.50;0.90;;;6.40;1.00;;;;;;8393379;28;20216;-62
2024/01/24 03:39:15;;;;;;;3.73;0.90;;;6.20;22.20;;;;;;8394689;28;20217;-62
2024/01/24 03:43:16;;;;;;;1.93;0.80;;;6.10;99.90;;;;;;8396884;28;20184;-62
2024/01/24 03:47:16;;;;;;;3.53;0.80;;;6.00;99.90;;;;;;8395875;28;20274;-62
2024/01/24 03:51:17;;;;;;;3.77;0.90;;;6.00;99.90;;;;;;8399090;28;20276;-59
2024/01/24 03:55:18;;;;;;;1.63;0.80;;;6.00;99.90;;;;;;8393796;28;20180;-59
2024/01/24 03:59:18;;;;;;;1.13;0.83;;;5.90;1.00;;;;;;8395235;28;20209;-59
2024/01/24 04:03:19;;;;;;;0.90;0.60;;;5.90;1.00;;;;;;8388968;28;20185;-58
2024/01/24 04:07:20;;;;;;;2.83;0.60;;;5.90;92.20;;;;;;8392683;28;20200;-59
2024/01/24 04:11:21;;;;;;;0.70;0.70;;;5.90;99.90;;;;;;8394374;28;20184;-60
2024/01/24 04:15:21;;;;;;;2.87;0.80;;;6.00;99.90;;;;;;8396607;28;20190;-61
2024/01/24 04:19:22;;;;;;;1.33;0.83;;;5.90;99.90;;;;;;8400144;28;20209;-61
2024/01/24 04:23:23;;;;;;;1.37;0.80;;;5.90;1.00;;;;;;8396067;28;20358;-61
2024/01/24 04:27:24;;;;;;;2.10;0.83;;;5.90;2.60;;;;;;8390085;28;20301;-60
2024/01/24 04:31:24;;;;;;;1.00;0.50;;;5.90;1.00;;;;;;8396210;28;20189;-60
2024/01/24 04:35:26;;;;;;;1.20;0.73;;;5.90;65.00;;;;;;8395878;28;20249;-61
2024/01/24 04:39:26;;;;;;;2.27;1.03;;;5.90;41.90;;;;;;8389329;28;20211;-60
2024/01/24 04:43:27;;;;;;;1.73;0.93;;;6.00;1.00;;;;;;8390686;28;20184;-60
2024/01/24 04:47:28;;;;;;;0.77;0.47;;;6.00;1.00;;;;;;8390073;28;20189;-61
2024/01/24 04:51:29;;;;;;;1.17;0.67;;;6.10;99.90;;;;;;8396828;28;20184;-60
2024/01/24 04:55:29;;;;;;;0.80;0.60;;;6.10;99.90;;;;;;8390790;28;20185;-60
2024/01/24 04:59:30;;;;;;;1.20;0.83;;;6.20;99.90;;;;;;8389430;28;20216;-60
2024/01/24 05:03:31;;;;;;;1.60;0.80;;;6.30;99.90;;;;;;8390259;28;20182;-60
2024/01/24 05:07:32;;;;;;;1.40;0.93;;;6.30;99.90;;;;;;8389362;28;20184;-61
2024/01/24 05:11:33;;;;;;;2.40;1.00;;;6.40;99.90;;;;;;8389630;28;20223;-60
2024/01/24 05:15:36;;;;;;;1.57;0.93;;;6.50;93.30;;;;;;8392790;28;20188;-61
2024/01/24 05:19:37;;;;;;;3.40;0.97;;;6.60;28.70;;;;;;8388535;28;20274;-61
2024/01/24 05:23:38;;;;;;;1.70;0.80;;;6.70;1.00;;;;;;8389228;28;20212;-62
2024/01/24 05:27:39;;;;;;;1.23;0.90;;;6.80;1.00;;;;;;8387805;28;20286;-61
2024/01/24 05:31:40;;;;;;;1.30;0.80;;;6.90;99.90;;;;;;8394224;28;20202;-61
2024/01/24 05:35:40;;;;;;;3.30;0.80;;;7.00;99.90;;;;;;8390129;28;20189;-59
2024/01/24 05:39:41;;;;;;;1.60;0.80;;;7.10;99.90;;;;;;8387480;28;20240;-60
2024/01/24 05:43:42;;;;;;;2.83;0.70;;;7.20;99.90;;;;;;8393168;28;20186;-60
2024/01/24 05:47:43;;;;;;;2.03;0.93;;;7.30;99.90;;;;;;8389906;28;20185;-61
2024/01/24 05:51:44;;;;;;;2.47;1.10;;;7.40;99.90;;;;;;8388815;28;20188;-60
2024/01/24 05:55:46;;;;;;;2.23;1.10;;;7.50;99.90;;;;;;8394184;28;20189;-60
2024/01/24 05:59:46;;;;;;;1.70;0.97;;;7.50;99.90;;;;;;8387696;28;20223;-60
2024/01/24 06:03:47;;;;;;;3.20;1.10;;;7.50;99.90;;;;;;8387909;28;20189;-62
2024/01/24 06:07:49;;;;;;;1.53;1.00;;;7.60;99.90;;;;;;8386300;28;20188;-63
2024/01/24 06:11:50;;;;;;;1.90;0.90;;;7.60;99.90;;;;;;8391420;28;20197;-65
2024/01/24 06:15:54;;;;;;;1.93;0.90;;;7.70;99.90;;;;;;8390235;28;20196;-64
2024/01/24 06:19:54;;;;;;;2.57;1.10;;;7.70;77.70;;;;;;8389942;28;20212;-64
2024/01/24 06:23:55;;;;;;;2.47;1.27;;;7.80;85.20;;;;;;8389935;28;20516;-63
2024/01/24 06:27:56;;;;;;;2.17;1.17;;;7.80;56.30;;;;;;8395921;28;20185;-63
2024/01/24 06:31:57;;;;;;;1.40;0.90;;;7.80;71.00;;;;;;8389251;28;20188;-63
2024/01/24 06:35:58;;;;;;;1.50;1.07;;;7.80;81.00;;;;;;8394657;28;20196;-62
2024/01/24 06:39:59;;;;;;;2.07;1.00;;;7.80;98.80;;;;;;8394024;28;20578;-62
2024/01/24 06:43:59;;;;;;;2.97;1.40;;;7.80;88.10;;;;;;8390382;28;20193;-63
2024/01/24 06:48:00;;;;;;;2.50;1.07;;;7.80;99.90;;;;;;8389609;28;20287;-62
2024/01/24 06:52:00;;;;;;;4.13;1.50;;;7.80;99.90;;;;;;8387277;28;20202;-62
2024/01/24 06:56:01;;;;;;;2.50;1.30;;;7.90;99.90;;;;;;8393890;28;20213;-62
2024/01/24 07:00:04;;;;;;;3.10;1.30;;;7.90;99.90;;;;;;8397311;28;20303;-64
2024/01/24 07:04:05;;;;;;;1.77;1.27;;;8.00;99.90;;;;;;8394925;28;20271;-64
2024/01/24 07:08:06;;;;;;;2.97;1.60;;;8.00;99.90;;;;;;8395889;28;20191;-64
2024/01/24 07:12:07;;;;;;;2.73;1.20;;;8.10;99.90;;;;;;8398811;28;20197;-63
2024/01/24 07:16:08;;;;;;;2.43;1.40;;;8.10;99.90;;;;;;8393171;28;20194;-64
2024/01/24 07:20:09;;;;;;;2.47;1.33;;;8.20;99.90;;;;;;8394723;28;20508;-67
2024/01/24 07:24:10;;;;;;;3.73;1.40;;;8.30;99.90;;;;;;8398180;28;20204;-63
2024/01/24 07:28:11;;;;;;;1.80;1.10;;;8.40;82.80;;;;;;8395185;28;20251;-64
2024/01/24 07:32:12;;;;;;;2.00;1.30;;;8.50;45.90;;;;;;8390834;28;20192;-64
2024/01/24 07:36:13;;;;;;;2.20;1.10;;;8.60;24.60;;;;;;8398451;28;20280;-64
2024/01/24 07:40:14;;;;;;;3.10;1.53;;;8.70;1.00;;;;;;8394699;28;20209;-66
2024/01/24 07:44:15;;;;;;;3.20;1.10;;;8.80;1.00;;;;;;8399205;28;20417;-65
2024/01/24 07:48:15;;;;;;;1.77;1.00;;;8.90;1.00;;;;;;8401125;28;20193;-65
2024/01/24 07:52:16;;;;;;;1.37;0.90;;;8.90;1.00;;;;;;8395581;28;20292;-64
2024/01/24 07:56:17;;;;;;;2.20;1.00;;;8.90;1.00;;;;;;8392070;28;20189;-65
2024/01/24 08:00:18;;;;;;;1.60;1.00;;;9.00;1.00;;;;;;8385937;28;20213;-67
2024/01/24 08:04:19;;;;;;;1.00;0.80;;;9.00;1.00;;;;;;8394446;28;20195;-67
2024/01/24 08:08:20;;;;;;;1.57;0.97;;;9.10;1.00;;;;;;8391592;28;20176;-66
2024/01/24 08:12:21;;;;;;;2.50;1.00;;;9.20;1.00;;;;;;8393573;28;20255;-65
2024/01/24 08:16:21;;;;;;;3.07;1.30;;;9.30;1.00;;;;;;8393886;28;20208;-65
2024/01/24 08:20:23;;;;;;;1.57;0.97;;;9.20;1.00;;;;;;8392659;28;20247;-64
2024/01/24 08:24:24;;;;;;;2.20;1.13;;;9.20;1.00;;;;;;8392536;28;20205;-66
2024/01/24 08:28:25;;;;;;;2.03;1.20;;;9.20;1.00;;;;;;8393431;28;20649;-65
2024/01/24 08:32:26;;;;;;;3.17;1.07;;;9.20;1.00;;;;;;8390353;28;20667;-65
2024/01/24 08:36:26;;;;;;;2.03;1.00;;;9.20;1.00;;;;;;8393761;28;20202;-66
2024/01/24 08:40:27;;;;;;;2.87;1.40;;;9.20;1.00;;;;;;8391880;28;20201;-65
2024/01/24 08:44:28;;;;;;;2.20;1.13;;;9.30;21.90;;;;;;8394571;28;20186;-66
2024/01/24 08:48:29;;;;;;;2.53;1.37;;;9.40;99.90;;;;;;8391050;28;20748;-63
2024/01/24 08:52:31;;;;;;;2.30;1.30;;;9.40;99.90;;;;;;8387726;28;20294;-63
2024/01/24 08:56:32;;;;;;;2.20;1.20;;;9.30;99.90;;;;;;8394536;28;20181;-63
2024/01/24 09:00:33;;;;;;;3.20;1.73;;;9.20;99.90;;;;;;8394001;28;20216;-64
2024/01/24 09:04:36;;;;;;;1.80;1.23;;;9.20;99.90;;;;;;8399883;28;20188;-64
2024/01/24 09:08:37;;;;;;;2.27;1.50;;;9.10;99.90;;;;;;8392524;28;20223;-63
2024/01/24 09:12:37;;;;;;;2.43;1.20;;;9.10;99.90;;;;;;8392466;28;20263;-64
2024/01/24 09:16:38;;;;;;;2.37;1.00;;;9.20;99.90;;;;;;8392294;28;20208;-64
2024/01/24 09:20:39;;;;;;;1.93;1.10;;;9.40;99.90;;;;;;8388511;28;20336;-64
2024/01/24 09:24:40;;;;;;;1.70;1.03;;;9.50;99.90;;;;;;8389245;28;20286;-64
2024/01/24 09:28:40;;;;;;;2.93;1.30;;;9.60;1.00;;;;;;8392253;28;20245;-64
2024/01/24 09:32:41;;;;;;;1.97;1.20;;;9.70;1.00;;;;;;8390051;28;20195;-64
2024/01/24 09:36:42;;;;;;;3.77;1.10;;;9.80;1.00;;;;;;8390103;28;20208;-64
2024/01/24 09:40:43;;;;;;;2.60;1.00;;;9.90;99.90;;;;;;8388477;28;20219;-64
2024/01/24 09:44:48;;;;;;;2.87;0.90;;;10.00;99.90;;;;;;8398281;28;20180;-66
2024/01/24 09:48:49;;;;;;;1.80;1.07;;;10.10;99.90;;;;;;8390303;28;20199;-65
2024/01/24 09:52:51;;;;;;;1.20;1.00;;;10.10;99.90;;;;;;8389735;28;20220;-66
2024/01/24 09:56:53;;;;;;;1.03;0.80;;;10.10;99.90;;;;;;8395486;28;20196;-64
2024/01/24 10:00:54;;;;;;;0.83;0.60;;;10.30;99.90;;;;;;8388854;28;20212;-65
2024/01/24 10:04:58;;;;;;;1.80;1.00;;;10.30;99.90;;;;;;8389846;28;20180;-68
2024/01/24 10:08:59;;;;;;;1.77;1.07;;;10.30;99.90;;;;;;8392467;28;20244;-65
2024/01/24 10:13:03;;;;;;;2.80;0.90;;;10.10;1.00;;;;;;8390778;28;20652;-67
2024/01/24 10:17:05;;;;;;;2.03;0.70;;;10.10;99.90;;;;;;8389699;28;20187;-67
2024/01/24 10:21:06;;;;;;;2.40;0.70;;;9.90;1.00;;;;;;8388230;28;20406;-70
2024/01/24 10:25:22;;;;;;;2.80;1.17;;;9.80;1.00;;;;;;8387377;28;20223;-69
2024/01/24 10:29:26;;;;;;;0.80;0.50;;;9.80;1.00;;;;;;8390353;28;20193;-70
2024/01/24 10:34:03;;;;;;;0.90;0.50;;;9.70;99.90;;;;;;8389501;28;20188;-68
2024/01/24 10:38:05;;;;;;;1.77;0.63;;;9.60;1.00;;;;;;8399960;28;20313;-67
2024/01/24 10:42:06;;;;;;;1.07;0.50;;;9.50;1.00;;;;;;8395196;28;20251;-67
2024/01/24 10:46:09;;;;;;;2.13;0.80;;;9.60;99.90;;;;;;8394900;28;20519;-69
2024/01/24 10:50:12;;;;;;;2.03;0.60;;;9.60;1.00;;;;;;8400771;28;20235;-68
2024/01/24 10:54:18;;;;;;;2.43;0.87;;;9.50;99.90;;;;;;8407797;28;20190;-66
2024/01/24 10:58:19;;;;;;;2.43;1.17;;;9.40;99.90;;;;;;8397711;28;20320;-68
2024/01/24 11:02:20;;;;;;;4.90;1.27;;;9.30;99.90;;;;;;8396862;28;20216;-70
2024/01/24 11:06:24;;;;;;;3.20;1.23;;;9.20;1.00;;;;;;8400754;28;20181;-64
2024/01/24 11:10:36;;;;;;;3.20;1.80;;;9.20;1.00;;;;;;8395575;28;20181;-65
2024/01/24 11:14:47;;;;;;;3.90;1.70;;;9.10;1.00;;;;;;8397900;28;20199;-64
2024/01/24 11:18:48;;;;;;;5.73;1.53;;;9.20;99.90;;;;;;8396336;28;20209;-68
2024/01/24 11:22:49;;;;;;;6.10;1.50;;;9.30;99.90;;;;;;8393373;28;20294;-68
2024/01/24 11:26:49;;;;;;;11.80;2.07;;;9.30;99.90;;;;;;8393393;28;20188;-68
2024/01/24 11:30:50;;;;;;;8.43;2.00;;;9.20;99.90;;;;;;8395483;28;20192;-68
2024/01/24 11:35:27;;;;;;;8.03;2.13;;;9.20;99.90;;;;;;8397931;28;20208;-68
2024/01/24 11:39:35;;;;;;;6.47;1.87;;;9.20;99.90;;;;;;8409039;28;20218;-67
2024/01/24 11:43:36;;;;;;;6.57;1.60;;;9.30;99.90;;;;;;8397279;28;20273;-68
2024/01/24 11:47:38;;;;;;;8.23;1.60;;;9.30;99.90;;;;;;8392293;28;20177;-65
2024/01/24 11:51:39;;;;;;;11.20;1.80;;;9.30;99.90;;;;;;8395994;28;20178;-65
2024/01/24 11:56:05;;;;;;;5.10;2.27;;;9.20;99.90;;;;;;8392514;28;20195;-64
2024/01/24 12:00:09;;;;;;;10.77;2.13;;;9.20;99.90;;;;;;8389717;28;20210;-65
2024/01/24 12:04:10;;;;;;;5.37;1.37;;;9.30;99.90;;;;;;8404647;28;20220;-66
2024/01/24 12:08:12;;;;;;;11.27;2.07;;;9.50;99.90;;;;;;8394827;28;20276;-66
2024/01/24 12:12:14;;;;;;;6.93;1.67;;;9.50;99.90;;;;;;8404183;28;20190;-68
2024/01/24 12:16:14;;;;;;;6.47;1.50;;;9.70;99.90;;;;;;8397488;28;20201;-65
2024/01/24 12:20:16;;;;;;;9.90;2.70;;;9.70;60.60;;;;;;8400627;28;20220;-65
2024/01/24 12:24:17;;;;;;;6.80;1.83;;;9.80;12.00;;;;;;8392248;28;20332;-65
2024/01/24 12:28:18;;;;;;;9.03;2.27;;;9.90;4.20;;;;;;8399188;28;20397;-64
2024/01/24 12:32:21;;;;;;;8.20;1.80;;;10.00;1.00;;;;;;8400769;28;20183;-64
2024/01/24 12:36:26;;;;;;;6.60;1.70;;;10.00;1.00;;;;;;8398556;28;20199;-63
2024/01/24 12:40:31;;;;;;;5.70;1.70;;;10.20;1.00;;;;;;8394098;28;20301;-66
2024/01/24 12:44:32;;;;;;;5.30;1.50;;;10.30;1.00;;;;;;8393502;28;20180;-68
2024/01/24 12:48:34;;;;;;;8.23;2.07;;;10.30;1.00;;;;;;8394403;28;20191;-67
2024/01/24 12:52:35;;;;;;;6.50;1.50;;;10.40;1.00;;;;;;8406154;28;20223;-64
2024/01/24 12:56:35;;;;;;;4.63;1.30;;;10.50;1.00;;;;;;8397059;28;20186;-69
2024/01/24 13:00:36;;;;;;;9.83;1.87;;;10.60;1.00;;;;;;8386606;28;20226;-65
2024/01/24 13:04:41;;;;;;;9.47;1.87;;;10.70;1.00;;;;;;8391436;28;20195;-66
2024/01/24 13:08:41;;;;;;;9.40;1.67;;;10.80;1.00;;;;;;8391006;28;20273;-69
2024/01/24 13:12:43;;;;;;;9.33;2.27;;;10.90;1.00;;;;;;8394175;28;20192;-64
2024/01/24 13:16:44;;;;;;;7.27;1.83;;;10.90;1.00;;;;;;8389723;28;20192;-66
2024/01/24 13:20:45;;;;;;;8.43;1.73;;;10.90;1.00;;;;;;8389347;28;20234;-69
2024/01/24 13:24:46;;;;;;;5.03;1.80;;;10.80;1.00;;;;;;8390923;28;20266;-66
2024/01/24 13:28:47;;;;;;;8.40;1.77;;;10.80;1.00;;;;;;8393702;28;20449;-65
2024/01/24 13:32:48;;;;;;;10.87;2.00;;;10.80;1.00;;;;;;8386488;28;20199;-66
2024/01/24 13:36:49;;;;;;;7.13;1.70;;;10.70;1.00;;;;;;8396191;28;20209;-66
2024/01/24 13:40:49;;;;;;;8.60;1.90;;;10.70;1.00;;;;;;8391589;28;20246;-66
2024/01/24 13:44:51;;;;;;;6.10;1.57;;;10.60;1.00;;;;;;8390920;28;20446;-66
2024/01/24 13:48:52;;;;;;;8.67;1.83;;;10.60;1.00;;;;;;8388421;28;20222;-65
2024/01/24 13:52:53;;;;;;;8.40;1.57;;;10.40;1.00;;;;;;8387797;28;20272;-67
2024/01/24 13:56:53;;;;;;;10.70;1.80;;;10.30;1.00;;;;;;8386042;28;20191;-65
2024/01/24 14:00:54;;;;;;;6.77;1.63;;;10.50;1.00;;;;;;8387266;28;20330;-67
2024/01/24 14:04:57;;;;;;;7.70;1.90;;;10.70;1.00;;;;;;8388785;28;20210;-69
2024/01/24 14:08:57;;;;;;;10.10;2.20;;;10.70;1.00;;;;;;8390785;28;20192;-66
2024/01/24 14:12:58;;;;;;;9.47;2.03;;;10.80;1.00;;;;;;8394592;28;20231;-65
2024/01/24 14:16:59;;;;;;;7.83;1.83;;;10.80;1.00;;;;;;8394522;28;20365;-65
2024/01/24 14:21:00;;;;;;;5.30;1.43;;;10.90;1.00;;;;;;8391654;28;20213;-65
2024/01/24 14:25:01;;;;;;;6.70;1.53;;;10.90;1.00;;;;;;8389959;28;20179;-68
2024/01/24 14:29:02;;;;;;;10.23;2.33;;;10.80;1.00;;;;;;8384799;28;20184;-65
2024/01/24 14:33:04;;;;;;;10.07;1.80;;;10.80;1.00;;;;;;8390002;28;20368;-67
2024/01/24 14:37:04;;;;;;;9.57;1.83;;;10.80;1.00;;;;;;8397075;28;20191;-66
2024/01/24 14:41:05;;;;;;;6.80;1.67;;;10.90;1.00;;;;;;8390674;28;20204;-68
2024/01/24 14:45:08;;;;;;;7.30;2.07;;;10.80;1.00;;;;;;8395082;28;20219;-66
2024/01/24 14:49:09;;;;;;;9.30;2.03;;;10.60;1.00;;;;;;8388674;28;20202;-66
2024/01/24 14:53:09;;;;;;;6.03;2.10;;;9.60;1.00;;;;;;8390738;28;20217;-64
2024/01/24 14:57:10;;;;;;;10.97;2.13;;;9.20;1.00;;;;;;8387171;28;20192;-69
2024/01/24 15:01:11;;;;;;;8.33;1.97;;;9.10;1.00;;;;;;8386219;28;20213;-68
2024/01/24 15:05:12;;;;;;;8.57;1.90;;;9.40;1.00;;;;;;8388007;28;20185;-68
2024/01/24 15:09:13;;;;;;;8.70;2.07;;;9.70;1.00;;;;;;8388958;28;20192;-68
2024/01/24 15:13:14;;;;;;;7.27;2.00;;;9.80;1.00;;;;;;8382426;28;20196;-68
2024/01/24 15:17:14;;;;;;;8.67;1.97;;;10.00;1.00;;;;;;8390447;28;20186;-66
2024/01/24 15:21:15;;;;;;;12.07;2.90;;;10.00;1.00;;;;;;8395899;28;20222;-66
2024/01/24 15:25:17;;;;;;;9.47;2.30;;;9.80;1.00;;;;;;8395139;28;20178;-67
2024/01/24 15:29:17;;;;;;;8.37;2.37;;;9.50;1.00;;;;;;8393015;28;20177;-67
2024/01/24 15:33:18;;;;;;;5.50;1.70;;;9.30;1.00;;;;;;8388920;28;20193;-63
2024/01/24 15:37:19;;;;;;;8.60;2.00;;;9.20;1.00;;;;;;8393886;28;20540;-65
2024/01/24 15:41:20;;;;;;;7.93;1.97;;;9.10;1.00;;;;;;8391270;28;20213;-65
2024/01/24 15:45:24;;;;;;;6.83;2.00;;;9.20;1.00;;;;;;8394466;28;20186;-68
2024/01/24 15:49:25;;;;;;;9.00;1.90;;;9.20;1.00;;;;;;8387931;28;20181;-66
2024/01/24 15:53:26;;;;;;;6.77;1.80;;;9.20;1.00;;;;;;8394198;28;20182;-65
2024/01/24 15:57:27;;;;;;;7.90;1.97;;;9.20;1.00;;;;;;8391695;28;20189;-65
2024/01/24 16:01:28;;;;;;;7.57;2.40;;;9.30;1.00;;;;;;8389220;28;20235;-62
2024/01/24 16:05:41;;;;;;;8.37;2.13;;;9.30;1.00;;;;;;8397148;28;20298;-62
2024/01/24 16:09:42;;;;;;;7.73;1.90;;;9.50;1.00;;;;;;8390752;28;20197;-64
2024/01/24 16:13:43;;;;;;;6.83;1.73;;;9.40;1.00;;;;;;8396855;28;20182;-64
2024/01/24 16:17:44;;;;;;;9.47;1.90;;;9.40;1.00;;;;;;8392229;28;20190;-64
2024/01/24 16:21:47;;;;;;;8.97;2.17;;;9.40;1.00;;;;;;8391570;28;20185;-64
2024/01/24 16:25:51;;;;;;;8.93;2.17;;;9.40;1.00;;;;;;8394821;28;20184;-69
2024/01/24 16:29:52;;;;;;;9.90;2.17;;;9.50;1.00;;;;;;8394480;28;20189;-64
2024/01/24 16:33:53;;;;;;;12.47;2.60;;;9.50;1.00;;;;;;8390346;28;20202;-65
2024/01/24 16:37:53;;;;;;;11.83;2.90;;;9.40;1.00;;;;;;8390276;28;20189;-64
2024/01/24 16:41:54;;;;;;;7.90;2.33;;;9.40;1.00;;;;;;8391834;28;20188;-65
2024/01/24 16:45:55;;;;;;;13.77;2.63;;;9.40;1.00;;;;;;8397384;28;20201;-63
2024/01/24 16:49:56;;;;;;;12.27;2.63;;;9.30;1.00;;;;;;8391486;28;20200;-63
2024/01/24 16:53:57;;;;;;;10.67;2.50;;;9.20;1.00;;;;;;8394751;28;20185;-63
2024/01/24 16:57:58;;;;;;;11.87;2.37;;;9.10;1.00;;;;;;8392545;28;20303;-65
2024/01/24 17:01:59;;;;;;;11.43;2.80;;;9.10;1.00;;;;;;8389657;28;20196;-64
2024/01/24 17:06:01;;;;;;;11.07;2.40;;;9.10;1.00;;;;;;8400338;28;20186;-63
2024/01/24 17:10:03;;;;;;;11.50;2.57;;;8.90;1.00;;;;;;8387772;28;20192;-65
2024/01/24 17:14:04;;;;;;;8.47;2.47;;;8.90;1.00;;;;;;8398018;28;20188;-63
2024/01/24 17:18:05;;;;;;;12.17;2.73;;;8.80;1.00;;;;;;8389691;28;20271;-64
2024/01/24 17:22:06;;;;;;;12.17;2.00;;;8.80;1.00;;;;;;8396828;28;20189;-67
2024/01/24 17:26:07;;;;;;;11.93;2.70;;;9.00;1.00;;;;;;8389024;28;20279;-65
2024/01/24 17:30:09;;;;;;;8.00;2.10;;;9.20;1.00;;;;;;8396195;28;20281;-63
2024/01/24 17:34:10;;;;;;;6.50;2.10;;;9.30;1.00;;;;;;8388868;28;20686;-63
2024/01/24 17:38:11;;;;;;;7.80;1.77;;;9.20;1.00;;;;;;8387472;28;20241;-65
2024/01/24 17:42:12;;;;;;;12.23;2.43;;;9.20;1.00;;;;;;8390095;28;20189;-64
2024/01/24 17:46:12;;;;;;;7.97;2.50;;;9.20;1.00;;;;;;8388275;28;20205;-63
2024/01/24 17:50:13;;;;;;;10.70;2.07;;;9.20;1.00;;;;;;8390986;28;20207;-66
2024/01/24 17:54:15;;;;;;;7.13;1.80;;;9.20;1.00;;;;;;8387821;28;20323;-64
2024/01/24 17:58:16;;;;;;;8.90;2.23;;;9.20;1.00;;;;;;8382950;28;20213;-64
2024/01/24 18:02:17;;;;;;;8.40;2.00;;;9.20;1.00;;;;;;8389485;28;20196;-64
2024/01/24 18:06:17;;;;;;;7.77;1.97;;;9.10;1.00;;;;;;8387790;28;20185;-67
2024/01/24 18:10:18;;;;;;;7.93;1.93;;;9.10;1.00;;;;;;8388461;28;20197;-65
2024/01/24 18:14:19;;;;;;;10.53;2.63;;;9.00;1.00;;;;;;8389394;28;20235;-65
2024/01/24 18:18:24;;;;;;;12.43;2.80;;;8.90;1.00;;;;;;8389716;28;20205;-65
2024/01/24 18:22:25;;;;;;;10.13;1.90;;;8.80;1.00;;;;;;8387284;28;20591;-65
2024/01/24 18:26:26;;;;;;;11.43;2.20;;;8.70;1.00;;;;;;8388828;28;20330;-65
2024/01/24 18:30:27;;;;;;;12.67;3.00;;;8.60;1.00;;;;;;8386793;28;20207;-67
2024/01/24 18:34:32;;;;;;;11.40;2.37;;;8.60;1.00;;;;;;8390975;28;20192;-64
2024/01/24 18:38:33;;;;;;;9.43;3.17;;;8.60;1.00;;;;;;8387264;28;20204;-65
2024/01/24 18:42:35;;;;;;;9.13;2.07;;;8.50;1.00;;;;;;8393425;28;20190;-64
2024/01/24 18:46:36;;;;;;;9.27;1.80;;;8.40;1.00;;;;;;8389316;28;20183;-65
2024/01/24 18:50:37;;;;;;;8.30;2.30;;;8.50;1.00;;;;;;8391534;28;20185;-64
2024/01/24 18:54:37;;;;;;;14.13;2.50;;;8.60;1.00;;;;;;8395202;28;20263;-63
2024/01/24 18:58:38;;;;;;;10.80;2.90;;;8.70;1.00;;;;;;8391252;28;20261;-64
2024/01/24 19:02:39;;;;;;;8.97;2.27;;;8.60;1.00;;;;;;8396977;28;20181;-64
2024/01/24 19:06:40;;;;;;;9.67;2.70;;;8.50;1.00;;;;;;8396758;28;20180;-64
2024/01/24 19:10:41;;;;;;;6.53;2.07;;;8.40;1.00;;;;;;8391023;28;20254;-63
2024/01/24 19:14:44;;;;;;;5.90;2.30;;;8.40;1.00;;;;;;8398360;28;20208;-65
2024/01/24 19:18:44;;;;;;;9.43;1.83;;;8.50;1.00;;;;;;8394856;28;20205;-64
2024/01/24 19:22:46;;;;;;;6.67;1.73;;;8.60;1.00;;;;;;8393751;28;20189;-66
2024/01/24 19:26:47;;;;;;;12.73;2.57;;;8.60;1.00;;;;;;8394508;28;20192;-67
2024/01/24 19:30:48;;;;;;;10.43;2.27;;;8.60;1.00;;;;;;8399975;28;20189;-63
2024/01/24 19:34:55;;;;;;;5.77;1.70;;;8.60;1.00;;;;;;8392647;28;20238;-65
2024/01/24 19:38:57;;;;;;;9.00;2.03;;;8.60;1.00;;;;;;8394967;28;20450;-62
2024/01/24 19:42:58;;;;;;;6.17;1.67;;;8.60;1.00;;;;;;8401172;28;20188;-66
2024/01/24 19:46:59;;;;;;;7.83;2.00;;;8.50;1.00;;;;;;8390432;28;20287;-64
2024/01/24 19:51:00;;;;;;;9.10;1.87;;;8.40;1.00;;;;;;8380268;28;20193;-62
2024/01/24 19:55:01;;;;;;;9.70;2.43;;;8.20;1.00;;;;;;8396263;28;20203;-62
2024/01/24 19:59:03;;;;;;;4.50;1.50;;;8.10;1.00;;;;;;8393764;28;20231;-63
2024/01/24 20:03:04;;;;;;;8.90;2.77;;;7.90;1.00;;;;;;8408303;28;20258;-63
2024/01/24 20:07:05;;;;;;;9.73;2.17;;;7.70;1.00;;;;;;8392801;28;20181;-62
2024/01/24 20:11:06;;;;;;;10.97;2.33;;;7.60;1.00;;;;;;8389662;28;20189;-62
2024/01/24 20:15:07;;;;;;;9.03;2.30;;;7.50;1.00;;;;;;8395841;28;20222;-64
2024/01/24 20:19:08;;;;;;;8.30;1.90;;;7.70;1.00;;;;;;8394282;28;20215;-64
2024/01/24 20:23:09;;;;;;;9.23;2.17;;;7.90;1.00;;;;;;8394301;28;20185;-64
2024/01/24 20:27:10;;;;;;;6.17;1.67;;;8.00;1.00;;;;;;8391815;28;20185;-64
2024/01/24 20:31:11;;;;;;;8.13;2.53;;;8.00;1.00;;;;;;8390374;28;20192;-63
2024/01/24 20:35:12;;;;;;;12.20;2.07;;;8.10;1.00;;;;;;8395083;28;20200;-62
2024/01/24 20:39:17;;;;;;;9.17;2.80;;;7.90;1.00;;;;;;8392442;28;20209;-63
2024/01/24 20:43:17;;;;;;;9.93;2.30;;;7.90;1.00;;;;;;8391922;28;20177;-62
2024/01/24 20:47:18;;;;;;;9.97;2.00;;;7.90;1.00;;;;;;8396075;28;20187;-61
2024/01/24 20:51:19;;;;;;;8.47;2.27;;;8.00;1.00;;;;;;8398037;28;20188;-62
2024/01/24 20:55:20;;;;;;;11.33;2.27;;;8.10;1.00;;;;;;8389237;28;20227;-60
2024/01/24 20:59:21;;;;;;;12.50;2.20;;;8.20;1.00;;;;;;8397921;28;20216;-61
2024/01/24 21:03:22;;;;;;;7.97;1.97;;;8.20;1.00;;;;;;8389945;28;20181;-65
2024/01/24 21:07:23;;;;;;;13.10;2.30;;;8.10;1.00;;;;;;8391143;28;20196;-63
2024/01/24 21:11:24;;;;;;;10.60;2.13;;;8.20;1.00;;;;;;8386941;28;20189;-62
2024/01/24 21:15:25;;;;;;;9.57;2.47;;;8.20;1.00;;;;;;8393407;28;20247;-65
2024/01/24 21:19:26;;;;;;;8.37;1.83;;;8.10;1.00;;;;;;8392807;28;20209;-64
2024/01/24 21:23:27;;;;;;;7.23;2.17;;;8.00;1.00;;;;;;8406611;27;20203;-62